sensor_id;sensor_type;location;lat;lon;timestamp;P1;durP1;ratioP1;P2;durP2;ratioP2
21166;SDS011;10741;52.272;9.580;2023-03-23T00:00:08;3.13;;;2.43;;
21166;SDS011;10741;52.272;9.580;2023-03-23T00:02:34;5.97;;;2.93;;
21166;SDS011;10741;52.272;9.580;2023-03-23T00:05:04;4.87;;;2.87;;
21166;SDS011;10741;52.272;9.580;2023-03-23T00:07:32;7.17;;;2.83;;
21166;SDS011;10741;52.272;9.580;2023-03-23T00:09:58;5.10;;;3.00;;
21166;SDS011;10741;52.272;9.580;2023-03-23T00:12:27;5.63;;;3.50;;
21166;SDS011;10741;52.272;9.580;2023-03-23T00:15:05;5.03;;;3.43;;
21166;SDS011;10741;52.272;9.580;2023-03-23T00:17:33;6.00;;;3.77;;
21166;SDS011;10741;52.272;9.580;2023-03-23T00:19:59;5.77;;;3.47;;
21166;SDS011;10741;52.272;9.580;2023-03-23T00:22:26;6.13;;;3.87;;
21166;SDS011;10741;52.272;9.580;2023-03-23T00:24:53;4.97;;;3.40;;
21166;SDS011;10741;52.272;9.580;2023-03-23T00:27:21;6.57;;;3.40;;
21166;SDS011;10741;52.272;9.580;2023-03-23T00:29:48;3.73;;;3.33;;
21166;SDS011;10741;52.272;9.580;2023-03-23T00:32:18;3.97;;;3.47;;
21166;SDS011;10741;52.272;9.580;2023-03-23T00:34:45;3.93;;;3.03;;
21166;SDS011;10741;52.272;9.580;2023-03-23T00:37:13;6.77;;;3.70;;
21166;SDS011;10741;52.272;9.580;2023-03-23T00:39:41;5.10;;;3.00;;
21166;SDS011;10741;52.272;9.580;2023-03-23T00:42:10;4.40;;;2.83;;
21166;SDS011;10741;52.272;9.580;2023-03-23T00:44:37;6.00;;;3.13;;
21166;SDS011;10741;52.272;9.580;2023-03-23T00:47:04;5.23;;;2.97;;
21166;SDS011;10741;52.272;9.580;2023-03-23T00:49:33;5.40;;;2.87;;
21166;SDS011;10741;52.272;9.580;2023-03-23T00:52:00;3.63;;;2.73;;
21166;SDS011;10741;52.272;9.580;2023-03-23T00:54:26;4.10;;;3.00;;
21166;SDS011;10741;52.272;9.580;2023-03-23T00:56:53;5.20;;;2.77;;
21166;SDS011;10741;52.272;9.580;2023-03-23T00:59:19;5.87;;;2.40;;
21166;SDS011;10741;52.272;9.580;2023-03-23T01:01:45;3.70;;;2.80;;
21166;SDS011;10741;52.272;9.580;2023-03-23T01:04:12;3.37;;;2.60;;
21166;SDS011;10741;52.272;9.580;2023-03-23T01:06:38;4.07;;;2.70;;
21166;SDS011;10741;52.272;9.580;2023-03-23T01:09:09;4.37;;;3.10;;
21166;SDS011;10741;52.272;9.580;2023-03-23T01:11:39;6.50;;;3.03;;
21166;SDS011;10741;52.272;9.580;2023-03-23T01:14:06;5.50;;;2.27;;
21166;SDS011;10741;52.272;9.580;2023-03-23T01:16:31;5.53;;;3.00;;
21166;SDS011;10741;52.272;9.580;2023-03-23T01:18:57;5.03;;;2.80;;
21166;SDS011;10741;52.272;9.580;2023-03-23T01:21:23;4.60;;;2.80;;
21166;SDS011;10741;52.272;9.580;2023-03-23T01:23:50;4.47;;;2.90;;
21166;SDS011;10741;52.272;9.580;2023-03-23T01:26:17;6.63;;;2.60;;
21166;SDS011;10741;52.272;9.580;2023-03-23T01:28:45;5.07;;;2.63;;
21166;SDS011;10741;52.272;9.580;2023-03-23T01:31:13;4.10;;;2.60;;
21166;SDS011;10741;52.272;9.580;2023-03-23T01:33:44;4.17;;;2.80;;
21166;SDS011;10741;52.272;9.580;2023-03-23T01:36:14;4.50;;;2.67;;
21166;SDS011;10741;52.272;9.580;2023-03-23T01:38:42;4.33;;;2.67;;
21166;SDS011;10741;52.272;9.580;2023-03-23T01:41:10;4.10;;;2.50;;
21166;SDS011;10741;52.272;9.580;2023-03-23T01:43:36;4.40;;;2.43;;
21166;SDS011;10741;52.272;9.580;2023-03-23T01:46:35;6.40;;;3.10;;
21166;SDS011;10741;52.272;9.580;2023-03-23T01:49:03;4.77;;;2.57;;
21166;SDS011;10741;52.272;9.580;2023-03-23T01:51:37;3.97;;;2.77;;
21166;SDS011;10741;52.272;9.580;2023-03-23T01:54:07;5.27;;;2.77;;
21166;SDS011;10741;52.272;9.580;2023-03-23T01:56:45;5.50;;;2.93;;
21166;SDS011;10741;52.272;9.580;2023-03-23T01:59:15;4.63;;;2.77;;
21166;SDS011;10741;52.272;9.580;2023-03-23T02:01:41;2.90;;;2.33;;
21166;SDS011;10741;52.272;9.580;2023-03-23T02:04:10;4.83;;;2.53;;
21166;SDS011;10741;52.272;9.580;2023-03-23T02:06:39;4.13;;;2.50;;
21166;SDS011;10741;52.272;9.580;2023-03-23T02:09:05;4.33;;;2.63;;
21166;SDS011;10741;52.272;9.580;2023-03-23T02:11:31;4.30;;;2.60;;
21166;SDS011;10741;52.272;9.580;2023-03-23T02:13:58;3.93;;;2.40;;
21166;SDS011;10741;52.272;9.580;2023-03-23T02:16:34;5.47;;;2.40;;
21166;SDS011;10741;52.272;9.580;2023-03-23T02:32:41;2.63;;;2.40;;
21166;SDS011;10741;52.272;9.580;2023-03-23T02:35:30;4.27;;;2.63;;
21166;SDS011;10741;52.272;9.580;2023-03-23T02:38:02;4.90;;;2.30;;
21166;SDS011;10741;52.272;9.580;2023-03-23T02:40:52;3.33;;;2.60;;
21166;SDS011;10741;52.272;9.580;2023-03-23T02:43:22;3.70;;;3.07;;
21166;SDS011;10741;52.272;9.580;2023-03-23T02:45:50;5.33;;;2.53;;
21166;SDS011;10741;52.272;9.580;2023-03-23T02:48:18;4.20;;;2.70;;
21166;SDS011;10741;52.272;9.580;2023-03-23T02:50:48;5.30;;;2.90;;
21166;SDS011;10741;52.272;9.580;2023-03-23T02:53:18;9.47;;;3.10;;
21166;SDS011;10741;52.272;9.580;2023-03-23T02:55:47;5.90;;;2.83;;
21166;SDS011;10741;52.272;9.580;2023-03-23T02:58:14;4.60;;;2.83;;
21166;SDS011;10741;52.272;9.580;2023-03-23T03:00:40;3.20;;;2.60;;
21166;SDS011;10741;52.272;9.580;2023-03-23T03:03:08;3.23;;;2.90;;
21166;SDS011;10741;52.272;9.580;2023-03-23T03:05:58;3.93;;;2.67;;
21166;SDS011;10741;52.272;9.580;2023-03-23T03:09:30;4.70;;;2.60;;
21166;SDS011;10741;52.272;9.580;2023-03-23T03:11:42;5.03;;;2.60;;
21166;SDS011;10741;52.272;9.580;2023-03-23T03:14:19;3.67;;;2.87;;
21166;SDS011;10741;52.272;9.580;2023-03-23T03:19:25;5.20;;;3.30;;
21166;SDS011;10741;52.272;9.580;2023-03-23T03:21:57;3.97;;;3.20;;
21166;SDS011;10741;52.272;9.580;2023-03-23T03:24:25;4.13;;;3.47;;
21166;SDS011;10741;52.272;9.580;2023-03-23T03:26:54;4.43;;;3.47;;
21166;SDS011;10741;52.272;9.580;2023-03-23T03:29:25;5.63;;;3.60;;
21166;SDS011;10741;52.272;9.580;2023-03-23T03:31:56;5.17;;;3.93;;
21166;SDS011;10741;52.272;9.580;2023-03-23T03:34:23;4.50;;;3.43;;
21166;SDS011;10741;52.272;9.580;2023-03-23T03:36:49;4.33;;;3.17;;
21166;SDS011;10741;52.272;9.580;2023-03-23T03:39:18;5.43;;;3.10;;
21166;SDS011;10741;52.272;9.580;2023-03-23T03:41:46;5.17;;;3.10;;
21166;SDS011;10741;52.272;9.580;2023-03-23T03:44:12;3.80;;;3.13;;
21166;SDS011;10741;52.272;9.580;2023-03-23T03:46:38;3.80;;;2.90;;
21166;SDS011;10741;52.272;9.580;2023-03-23T03:49:06;4.37;;;3.40;;
21166;SDS011;10741;52.272;9.580;2023-03-23T03:51:37;3.73;;;3.10;;
21166;SDS011;10741;52.272;9.580;2023-03-23T03:54:04;4.93;;;3.00;;
21166;SDS011;10741;52.272;9.580;2023-03-23T03:56:30;4.20;;;2.67;;
21166;SDS011;10741;52.272;9.580;2023-03-23T03:59:16;3.40;;;2.43;;
21166;SDS011;10741;52.272;9.580;2023-03-23T04:01:42;2.83;;;2.53;;
21166;SDS011;10741;52.272;9.580;2023-03-23T04:04:07;3.10;;;2.40;;
21166;SDS011;10741;52.272;9.580;2023-03-23T04:06:40;4.37;;;2.93;;
21166;SDS011;10741;52.272;9.580;2023-03-23T04:09:06;2.87;;;2.57;;
21166;SDS011;10741;52.272;9.580;2023-03-23T04:11:32;3.30;;;2.53;;
21166;SDS011;10741;52.272;9.580;2023-03-23T04:13:58;3.77;;;2.17;;
21166;SDS011;10741;52.272;9.580;2023-03-23T04:16:23;3.83;;;2.47;;
21166;SDS011;10741;52.272;9.580;2023-03-23T04:18:51;2.83;;;2.30;;
21166;SDS011;10741;52.272;9.580;2023-03-23T04:21:17;3.63;;;2.40;;
21166;SDS011;10741;52.272;9.580;2023-03-23T04:23:42;3.30;;;2.00;;
21166;SDS011;10741;52.272;9.580;2023-03-23T04:26:08;2.70;;;2.27;;
21166;SDS011;10741;52.272;9.580;2023-03-23T04:28:38;2.60;;;1.90;;
21166;SDS011;10741;52.272;9.580;2023-03-23T04:31:06;2.10;;;1.93;;
21166;SDS011;10741;52.272;9.580;2023-03-23T04:33:33;2.70;;;2.13;;
21166;SDS011;10741;52.272;9.580;2023-03-23T04:36:00;2.53;;;1.63;;
21166;SDS011;10741;52.272;9.580;2023-03-23T04:38:28;3.40;;;2.00;;
21166;SDS011;10741;52.272;9.580;2023-03-23T04:40:54;2.30;;;1.90;;
21166;SDS011;10741;52.272;9.580;2023-03-23T04:43:22;1.97;;;1.70;;
21166;SDS011;10741;52.272;9.580;2023-03-23T04:45:53;3.30;;;2.17;;
21166;SDS011;10741;52.272;9.580;2023-03-23T04:48:29;2.37;;;2.03;;
21166;SDS011;10741;52.272;9.580;2023-03-23T04:50:58;2.00;;;1.77;;
21166;SDS011;10741;52.272;9.580;2023-03-23T04:53:25;2.80;;;1.70;;
21166;SDS011;10741;52.272;9.580;2023-03-23T04:55:51;2.40;;;1.60;;
21166;SDS011;10741;52.272;9.580;2023-03-23T04:58:17;2.83;;;1.50;;
21166;SDS011;10741;52.272;9.580;2023-03-23T05:00:42;2.87;;;1.73;;
21166;SDS011;10741;52.272;9.580;2023-03-23T05:03:14;2.27;;;1.73;;
21166;SDS011;10741;52.272;9.580;2023-03-23T05:05:44;2.20;;;1.43;;
21166;SDS011;10741;52.272;9.580;2023-03-23T05:08:20;2.30;;;1.90;;
21166;SDS011;10741;52.272;9.580;2023-03-23T05:10:51;2.83;;;1.50;;
21166;SDS011;10741;52.272;9.580;2023-03-23T05:13:21;3.37;;;1.50;;
21166;SDS011;10741;52.272;9.580;2023-03-23T05:15:47;3.33;;;1.90;;
21166;SDS011;10741;52.272;9.580;2023-03-23T05:18:13;6.17;;;1.97;;
21166;SDS011;10741;52.272;9.580;2023-03-23T05:20:39;2.93;;;1.90;;
21166;SDS011;10741;52.272;9.580;2023-03-23T05:23:07;3.67;;;2.00;;
21166;SDS011;10741;52.272;9.580;2023-03-23T05:25:34;2.50;;;1.50;;
21166;SDS011;10741;52.272;9.580;2023-03-23T05:28:04;2.13;;;1.50;;
21166;SDS011;10741;52.272;9.580;2023-03-23T05:30:37;2.47;;;1.90;;
21166;SDS011;10741;52.272;9.580;2023-03-23T05:33:03;2.80;;;1.50;;
21166;SDS011;10741;52.272;9.580;2023-03-23T05:35:30;2.93;;;1.90;;
21166;SDS011;10741;52.272;9.580;2023-03-23T05:37:56;3.23;;;1.57;;
21166;SDS011;10741;52.272;9.580;2023-03-23T05:40:25;2.13;;;1.63;;
21166;SDS011;10741;52.272;9.580;2023-03-23T05:42:52;2.43;;;1.60;;
21166;SDS011;10741;52.272;9.580;2023-03-23T05:45:20;3.37;;;1.93;;
21166;SDS011;10741;52.272;9.580;2023-03-23T05:47:47;2.17;;;1.60;;
21166;SDS011;10741;52.272;9.580;2023-03-23T05:50:13;2.37;;;1.53;;
21166;SDS011;10741;52.272;9.580;2023-03-23T05:52:39;4.23;;;1.60;;
21166;SDS011;10741;52.272;9.580;2023-03-23T05:55:05;2.03;;;1.33;;
21166;SDS011;10741;52.272;9.580;2023-03-23T05:57:33;2.30;;;1.33;;
21166;SDS011;10741;52.272;9.580;2023-03-23T05:59:59;2.00;;;1.30;;
21166;SDS011;10741;52.272;9.580;2023-03-23T06:02:30;1.73;;;1.20;;
21166;SDS011;10741;52.272;9.580;2023-03-23T06:04:56;3.47;;;1.50;;
21166;SDS011;10741;52.272;9.580;2023-03-23T06:07:23;2.13;;;1.10;;
21166;SDS011;10741;52.272;9.580;2023-03-23T06:09:49;3.73;;;1.40;;
21166;SDS011;10741;52.272;9.580;2023-03-23T06:12:16;2.20;;;1.40;;
21166;SDS011;10741;52.272;9.580;2023-03-23T06:14:45;1.63;;;1.53;;
21166;SDS011;10741;52.272;9.580;2023-03-23T06:17:11;3.70;;;1.20;;
21166;SDS011;10741;52.272;9.580;2023-03-23T06:19:38;2.27;;;1.23;;
21166;SDS011;10741;52.272;9.580;2023-03-23T06:22:04;3.60;;;1.50;;
21166;SDS011;10741;52.272;9.580;2023-03-23T06:24:30;1.37;;;1.20;;
21166;SDS011;10741;52.272;9.580;2023-03-23T06:26:57;3.13;;;1.40;;
21166;SDS011;10741;52.272;9.580;2023-03-23T06:29:24;1.43;;;1.33;;
21166;SDS011;10741;52.272;9.580;2023-03-23T06:31:54;1.77;;;1.27;;
21166;SDS011;10741;52.272;9.580;2023-03-23T06:34:22;1.40;;;1.30;;
21166;SDS011;10741;52.272;9.580;2023-03-23T06:36:48;1.53;;;1.43;;
21166;SDS011;10741;52.272;9.580;2023-03-23T06:39:14;2.20;;;1.40;;
21166;SDS011;10741;52.272;9.580;2023-03-23T06:41:40;2.40;;;1.20;;
21166;SDS011;10741;52.272;9.580;2023-03-23T06:44:06;1.23;;;1.10;;
21166;SDS011;10741;52.272;9.580;2023-03-23T06:46:33;1.73;;;1.30;;
21166;SDS011;10741;52.272;9.580;2023-03-23T06:48:59;1.23;;;1.13;;
21166;SDS011;10741;52.272;9.580;2023-03-23T06:51:25;2.67;;;1.20;;
21166;SDS011;10741;52.272;9.580;2023-03-23T06:53:51;1.60;;;1.20;;
21166;SDS011;10741;52.272;9.580;2023-03-23T06:56:17;2.17;;;1.20;;
21166;SDS011;10741;52.272;9.580;2023-03-23T06:58:43;1.50;;;1.17;;
21166;SDS011;10741;52.272;9.580;2023-03-23T07:01:10;1.93;;;1.20;;
21166;SDS011;10741;52.272;9.580;2023-03-23T07:03:36;1.30;;;1.07;;
21166;SDS011;10741;52.272;9.580;2023-03-23T07:06:02;1.77;;;1.53;;
21166;SDS011;10741;52.272;9.580;2023-03-23T07:08:29;1.17;;;1.07;;
21166;SDS011;10741;52.272;9.580;2023-03-23T07:10:55;1.43;;;1.27;;
21166;SDS011;10741;52.272;9.580;2023-03-23T07:13:21;2.07;;;1.70;;
21166;SDS011;10741;52.272;9.580;2023-03-23T07:15:48;2.90;;;1.43;;
21166;SDS011;10741;52.272;9.580;2023-03-23T07:18:14;1.60;;;1.37;;
21166;SDS011;10741;52.272;9.580;2023-03-23T07:20:40;2.73;;;1.33;;
21166;SDS011;10741;52.272;9.580;2023-03-23T07:23:06;2.80;;;1.60;;
21166;SDS011;10741;52.272;9.580;2023-03-23T07:25:32;3.57;;;1.40;;
21166;SDS011;10741;52.272;9.580;2023-03-23T07:28:00;1.77;;;1.20;;
21166;SDS011;10741;52.272;9.580;2023-03-23T07:30:27;3.20;;;1.37;;
21166;SDS011;10741;52.272;9.580;2023-03-23T07:32:57;2.23;;;1.40;;
21166;SDS011;10741;52.272;9.580;2023-03-23T07:35:23;2.27;;;1.40;;
21166;SDS011;10741;52.272;9.580;2023-03-23T07:37:50;1.40;;;1.30;;
21166;SDS011;10741;52.272;9.580;2023-03-23T07:40:17;3.10;;;1.40;;
21166;SDS011;10741;52.272;9.580;2023-03-23T07:42:50;2.00;;;1.33;;
21166;SDS011;10741;52.272;9.580;2023-03-23T07:45:18;2.37;;;1.40;;
21166;SDS011;10741;52.272;9.580;2023-03-23T07:47:43;1.70;;;1.60;;
21166;SDS011;10741;52.272;9.580;2023-03-23T07:50:09;2.33;;;1.40;;
21166;SDS011;10741;52.272;9.580;2023-03-23T07:52:37;2.30;;;1.40;;
21166;SDS011;10741;52.272;9.580;2023-03-23T07:55:04;2.50;;;1.20;;
21166;SDS011;10741;52.272;9.580;2023-03-23T07:57:30;3.23;;;1.80;;
21166;SDS011;10741;52.272;9.580;2023-03-23T07:59:57;2.37;;;1.43;;
21166;SDS011;10741;52.272;9.580;2023-03-23T08:02:24;2.63;;;1.40;;
21166;SDS011;10741;52.272;9.580;2023-03-23T08:04:51;3.40;;;1.63;;
21166;SDS011;10741;52.272;9.580;2023-03-23T08:07:19;3.13;;;1.53;;
21166;SDS011;10741;52.272;9.580;2023-03-23T08:09:45;2.67;;;1.43;;
21166;SDS011;10741;52.272;9.580;2023-03-23T08:12:12;1.90;;;1.40;;
21166;SDS011;10741;52.272;9.580;2023-03-23T08:14:38;2.57;;;1.50;;
21166;SDS011;10741;52.272;9.580;2023-03-23T08:17:07;3.20;;;1.93;;
21166;SDS011;10741;52.272;9.580;2023-03-23T08:19:38;2.03;;;1.33;;
21166;SDS011;10741;52.272;9.580;2023-03-23T08:22:04;2.67;;;1.40;;
21166;SDS011;10741;52.272;9.580;2023-03-23T08:24:30;2.10;;;1.30;;
21166;SDS011;10741;52.272;9.580;2023-03-23T08:27:07;2.37;;;1.40;;
21166;SDS011;10741;52.272;9.580;2023-03-23T08:29:33;3.50;;;1.70;;
21166;SDS011;10741;52.272;9.580;2023-03-23T08:31:59;3.93;;;1.60;;
21166;SDS011;10741;52.272;9.580;2023-03-23T08:34:27;1.63;;;1.27;;
21166;SDS011;10741;52.272;9.580;2023-03-23T08:36:53;4.37;;;1.87;;
21166;SDS011;10741;52.272;9.580;2023-03-23T08:39:20;3.73;;;1.47;;
21166;SDS011;10741;52.272;9.580;2023-03-23T08:41:47;3.70;;;1.50;;
21166;SDS011;10741;52.272;9.580;2023-03-23T08:44:16;3.83;;;1.60;;
21166;SDS011;10741;52.272;9.580;2023-03-23T08:46:42;2.53;;;1.40;;
21166;SDS011;10741;52.272;9.580;2023-03-23T08:49:08;4.13;;;1.50;;
21166;SDS011;10741;52.272;9.580;2023-03-23T08:51:34;4.07;;;1.47;;
21166;SDS011;10741;52.272;9.580;2023-03-23T08:54:00;2.33;;;1.40;;
21166;SDS011;10741;52.272;9.580;2023-03-23T08:56:26;4.57;;;1.87;;
21166;SDS011;10741;52.272;9.580;2023-03-23T08:58:52;4.20;;;1.60;;
21166;SDS011;10741;52.272;9.580;2023-03-23T09:01:18;4.30;;;1.90;;
21166;SDS011;10741;52.272;9.580;2023-03-23T09:03:44;3.03;;;1.50;;
21166;SDS011;10741;52.272;9.580;2023-03-23T09:06:11;3.97;;;1.50;;
21166;SDS011;10741;52.272;9.580;2023-03-23T09:08:38;3.23;;;1.70;;
21166;SDS011;10741;52.272;9.580;2023-03-23T09:11:07;4.30;;;1.77;;
21166;SDS011;10741;52.272;9.580;2023-03-23T09:13:35;5.70;;;1.83;;
21166;SDS011;10741;52.272;9.580;2023-03-23T09:16:02;3.87;;;1.90;;
21166;SDS011;10741;52.272;9.580;2023-03-23T09:18:29;3.53;;;1.60;;
21166;SDS011;10741;52.272;9.580;2023-03-23T09:20:57;5.03;;;1.90;;
21166;SDS011;10741;52.272;9.580;2023-03-23T09:23:24;5.00;;;1.97;;
21166;SDS011;10741;52.272;9.580;2023-03-23T09:25:50;3.67;;;1.93;;
21166;SDS011;10741;52.272;9.580;2023-03-23T09:28:17;7.57;;;1.87;;
21166;SDS011;10741;52.272;9.580;2023-03-23T09:30:43;3.00;;;1.77;;
21166;SDS011;10741;52.272;9.580;2023-03-23T09:33:10;4.30;;;1.80;;
21166;SDS011;10741;52.272;9.580;2023-03-23T09:35:36;4.27;;;1.70;;
21166;SDS011;10741;52.272;9.580;2023-03-23T09:38:03;4.93;;;1.77;;
21166;SDS011;10741;52.272;9.580;2023-03-23T09:40:33;5.23;;;2.00;;
21166;SDS011;10741;52.272;9.580;2023-03-23T09:43:25;6.50;;;2.23;;
21166;SDS011;10741;52.272;9.580;2023-03-23T09:48:55;4.90;;;2.03;;
21166;SDS011;10741;52.272;9.580;2023-03-23T09:54:00;4.93;;;1.63;;
21166;SDS011;10741;52.272;9.580;2023-03-23T09:56:38;3.80;;;1.60;;
21166;SDS011;10741;52.272;9.580;2023-03-23T09:59:13;4.97;;;1.70;;
21166;SDS011;10741;52.272;9.580;2023-03-23T10:01:49;6.87;;;2.07;;
21166;SDS011;10741;52.272;9.580;2023-03-23T10:04:33;5.83;;;2.13;;
21166;SDS011;10741;52.272;9.580;2023-03-23T10:07:17;6.07;;;1.90;;
21166;SDS011;10741;52.272;9.580;2023-03-23T10:09:52;4.87;;;1.53;;
21166;SDS011;10741;52.272;9.580;2023-03-23T10:15:14;5.10;;;1.80;;
21166;SDS011;10741;52.272;9.580;2023-03-23T10:17:57;4.13;;;1.57;;
21166;SDS011;10741;52.272;9.580;2023-03-23T10:20:50;2.87;;;1.67;;
21166;SDS011;10741;52.272;9.580;2023-03-23T10:28:47;5.30;;;1.80;;
21166;SDS011;10741;52.272;9.580;2023-03-23T10:31:21;6.80;;;2.10;;
21166;SDS011;10741;52.272;9.580;2023-03-23T10:33:52;6.67;;;2.10;;
21166;SDS011;10741;52.272;9.580;2023-03-23T10:39:11;5.87;;;2.00;;
21166;SDS011;10741;52.272;9.580;2023-03-23T10:41:42;5.50;;;2.00;;
21166;SDS011;10741;52.272;9.580;2023-03-23T10:44:18;5.70;;;2.03;;
21166;SDS011;10741;52.272;9.580;2023-03-23T10:49:25;7.80;;;1.90;;
21166;SDS011;10741;52.272;9.580;2023-03-23T10:52:05;4.87;;;2.00;;
21166;SDS011;10741;52.272;9.580;2023-03-23T10:54:39;3.70;;;1.67;;
21166;SDS011;10741;52.272;9.580;2023-03-23T10:57:21;4.00;;;1.60;;
21166;SDS011;10741;52.272;9.580;2023-03-23T10:59:57;4.67;;;1.50;;
21166;SDS011;10741;52.272;9.580;2023-03-23T11:02:26;3.93;;;1.97;;
21166;SDS011;10741;52.272;9.580;2023-03-23T11:04:58;3.97;;;1.90;;
21166;SDS011;10741;52.272;9.580;2023-03-23T11:07:27;4.60;;;1.80;;
21166;SDS011;10741;52.272;9.580;2023-03-23T11:13:02;4.70;;;1.93;;
21166;SDS011;10741;52.272;9.580;2023-03-23T11:15:39;6.20;;;1.93;;
21166;SDS011;10741;52.272;9.580;2023-03-23T11:18:08;6.17;;;2.20;;
21166;SDS011;10741;52.272;9.580;2023-03-23T11:20:37;4.20;;;2.10;;
21166;SDS011;10741;52.272;9.580;2023-03-23T11:23:23;5.17;;;1.80;;
21166;SDS011;10741;52.272;9.580;2023-03-23T11:26:08;6.27;;;1.83;;
21166;SDS011;10741;52.272;9.580;2023-03-23T11:28:42;4.77;;;1.63;;
21166;SDS011;10741;52.272;9.580;2023-03-23T11:31:11;6.93;;;2.03;;
21166;SDS011;10741;52.272;9.580;2023-03-23T11:33:47;5.17;;;1.70;;
21166;SDS011;10741;52.272;9.580;2023-03-23T11:36:19;5.77;;;2.03;;
21166;SDS011;10741;52.272;9.580;2023-03-23T11:38:45;4.30;;;1.80;;
21166;SDS011;10741;52.272;9.580;2023-03-23T11:41:12;5.37;;;1.83;;
21166;SDS011;10741;52.272;9.580;2023-03-23T11:43:46;5.00;;;2.10;;
21166;SDS011;10741;52.272;9.580;2023-03-23T11:46:18;7.17;;;2.37;;
21166;SDS011;10741;52.272;9.580;2023-03-23T11:49:18;5.80;;;1.83;;
21166;SDS011;10741;52.272;9.580;2023-03-23T11:51:55;5.17;;;2.13;;
21166;SDS011;10741;52.272;9.580;2023-03-23T11:54:41;4.40;;;2.20;;
21166;SDS011;10741;52.272;9.580;2023-03-23T11:57:13;4.93;;;1.97;;
21166;SDS011;10741;52.272;9.580;2023-03-23T11:59:40;6.20;;;1.80;;
21166;SDS011;10741;52.272;9.580;2023-03-23T12:02:13;6.77;;;2.37;;
21166;SDS011;10741;52.272;9.580;2023-03-23T12:23:38;2.43;;;0.90;;
21166;SDS011;10741;52.272;9.580;2023-03-23T12:26:16;3.17;;;0.90;;
21166;SDS011;10741;52.272;9.580;2023-03-23T12:31:29;1.33;;;0.80;;
21166;SDS011;10741;52.272;9.580;2023-03-23T12:34:23;1.87;;;0.57;;
21166;SDS011;10741;52.272;9.580;2023-03-23T12:50:44;2.03;;;0.77;;
21166;SDS011;10741;52.272;9.580;2023-03-23T12:53:55;1.20;;;0.70;;
21166;SDS011;10741;52.272;9.580;2023-03-23T12:56:31;1.87;;;0.60;;
21166;SDS011;10741;52.272;9.580;2023-03-23T12:59:10;0.77;;;0.47;;
21166;SDS011;10741;52.272;9.580;2023-03-23T13:01:45;2.43;;;0.77;;
21166;SDS011;10741;52.272;9.580;2023-03-23T13:06:43;1.93;;;0.60;;
21166;SDS011;10741;52.272;9.580;2023-03-23T13:09:17;2.87;;;0.67;;
21166;SDS011;10741;52.272;9.580;2023-03-23T13:11:52;1.50;;;0.70;;
21166;SDS011;10741;52.272;9.580;2023-03-23T13:25:19;2.10;;;0.73;;
21166;SDS011;10741;52.272;9.580;2023-03-23T13:27:57;1.47;;;1.03;;
21166;SDS011;10741;52.272;9.580;2023-03-23T13:30:24;1.67;;;0.60;;
21166;SDS011;10741;52.272;9.580;2023-03-23T13:32:50;3.07;;;0.60;;
21166;SDS011;10741;52.272;9.580;2023-03-23T13:35:18;1.20;;;0.73;;
21166;SDS011;10741;52.272;9.580;2023-03-23T13:37:49;1.63;;;0.67;;
21166;SDS011;10741;52.272;9.580;2023-03-23T13:42:58;3.03;;;0.87;;
21166;SDS011;10741;52.272;9.580;2023-03-23T13:48:05;0.80;;;0.40;;
21166;SDS011;10741;52.272;9.580;2023-03-23T13:50:53;1.37;;;0.70;;
21166;SDS011;10741;52.272;9.580;2023-03-23T13:53:26;0.97;;;0.50;;
21166;SDS011;10741;52.272;9.580;2023-03-23T13:58:48;2.20;;;0.90;;
21166;SDS011;10741;52.272;9.580;2023-03-23T14:01:30;1.53;;;0.50;;
21166;SDS011;10741;52.272;9.580;2023-03-23T14:04:00;2.10;;;0.70;;
21166;SDS011;10741;52.272;9.580;2023-03-23T14:06:33;1.50;;;0.77;;
21166;SDS011;10741;52.272;9.580;2023-03-23T14:09:42;2.30;;;1.10;;
21166;SDS011;10741;52.272;9.580;2023-03-23T14:11:59;2.43;;;1.00;;
21166;SDS011;10741;52.272;9.580;2023-03-23T14:14:34;2.90;;;1.30;;
21166;SDS011;10741;52.272;9.580;2023-03-23T14:17:13;1.17;;;0.80;;
21166;SDS011;10741;52.272;9.580;2023-03-23T14:19:42;1.77;;;0.93;;
21166;SDS011;10741;52.272;9.580;2023-03-23T14:22:22;1.93;;;0.90;;
21166;SDS011;10741;52.272;9.580;2023-03-23T14:27:42;1.70;;;0.90;;
21166;SDS011;10741;52.272;9.580;2023-03-23T14:30:35;2.43;;;1.10;;
21166;SDS011;10741;52.272;9.580;2023-03-23T14:33:04;1.87;;;1.10;;
21166;SDS011;10741;52.272;9.580;2023-03-23T14:35:34;2.90;;;1.20;;
21166;SDS011;10741;52.272;9.580;2023-03-23T14:38:03;2.03;;;1.10;;
21166;SDS011;10741;52.272;9.580;2023-03-23T14:40:30;3.47;;;1.07;;
21166;SDS011;10741;52.272;9.580;2023-03-23T14:42:56;1.43;;;1.10;;
21166;SDS011;10741;52.272;9.580;2023-03-23T14:45:23;2.67;;;1.47;;
21166;SDS011;10741;52.272;9.580;2023-03-23T14:48:02;2.10;;;1.33;;
21166;SDS011;10741;52.272;9.580;2023-03-23T14:53:24;3.83;;;1.23;;
21166;SDS011;10741;52.272;9.580;2023-03-23T14:56:00;2.07;;;1.00;;
21166;SDS011;10741;52.272;9.580;2023-03-23T14:58:29;2.97;;;1.13;;
21166;SDS011;10741;52.272;9.580;2023-03-23T15:00:59;4.07;;;0.90;;
21166;SDS011;10741;52.272;9.580;2023-03-23T15:03:39;2.20;;;0.90;;
21166;SDS011;10741;52.272;9.580;2023-03-23T15:06:15;1.20;;;0.90;;
21166;SDS011;10741;52.272;9.580;2023-03-23T15:08:43;2.13;;;1.60;;
21166;SDS011;10741;52.272;9.580;2023-03-23T15:11:14;3.77;;;1.60;;
21166;SDS011;10741;52.272;9.580;2023-03-23T15:14:00;1.93;;;1.00;;
21166;SDS011;10741;52.272;9.580;2023-03-23T15:16:34;2.40;;;1.70;;
21166;SDS011;10741;52.272;9.580;2023-03-23T15:19:05;1.97;;;1.30;;
21166;SDS011;10741;52.272;9.580;2023-03-23T15:21:46;3.10;;;1.60;;
21166;SDS011;10741;52.272;9.580;2023-03-23T15:24:21;2.30;;;1.37;;
21166;SDS011;10741;52.272;9.580;2023-03-23T15:26:52;1.63;;;1.53;;
21166;SDS011;10741;52.272;9.580;2023-03-23T15:29:20;2.93;;;1.33;;
21166;SDS011;10741;52.272;9.580;2023-03-23T15:31:50;3.93;;;1.53;;
21166;SDS011;10741;52.272;9.580;2023-03-23T15:34:20;3.47;;;1.57;;
21166;SDS011;10741;52.272;9.580;2023-03-23T15:36:54;3.60;;;1.40;;
21166;SDS011;10741;52.272;9.580;2023-03-23T15:39:23;2.17;;;1.50;;
21166;SDS011;10741;52.272;9.580;2023-03-23T15:41:49;2.13;;;1.40;;
21166;SDS011;10741;52.272;9.580;2023-03-23T15:44:20;2.27;;;1.30;;
21166;SDS011;10741;52.272;9.580;2023-03-23T15:46:53;1.47;;;1.30;;
21166;SDS011;10741;52.272;9.580;2023-03-23T15:49:28;1.97;;;1.50;;
21166;SDS011;10741;52.272;9.580;2023-03-23T15:51:54;1.97;;;1.60;;
21166;SDS011;10741;52.272;9.580;2023-03-23T15:54:20;1.80;;;1.20;;
21166;SDS011;10741;52.272;9.580;2023-03-23T15:56:45;1.43;;;1.20;;
21166;SDS011;10741;52.272;9.580;2023-03-23T15:59:11;2.40;;;1.30;;
21166;SDS011;10741;52.272;9.580;2023-03-23T16:01:38;4.13;;;2.60;;
21166;SDS011;10741;52.272;9.580;2023-03-23T16:04:07;3.60;;;1.53;;
21166;SDS011;10741;52.272;9.580;2023-03-23T16:06:41;1.87;;;1.40;;
21166;SDS011;10741;52.272;9.580;2023-03-23T16:09:11;5.17;;;1.70;;
21166;SDS011;10741;52.272;9.580;2023-03-23T16:11:42;2.03;;;1.20;;
21166;SDS011;10741;52.272;9.580;2023-03-23T16:14:08;2.10;;;1.90;;
21166;SDS011;10741;52.272;9.580;2023-03-23T16:16:38;3.30;;;2.07;;
21166;SDS011;10741;52.272;9.580;2023-03-23T16:19:14;3.43;;;1.60;;
21166;SDS011;10741;52.272;9.580;2023-03-23T16:21:40;3.57;;;2.30;;
21166;SDS011;10741;52.272;9.580;2023-03-23T16:24:07;4.17;;;2.67;;
21166;SDS011;10741;52.272;9.580;2023-03-23T16:26:34;4.57;;;2.23;;
21166;SDS011;10741;52.272;9.580;2023-03-23T16:29:00;4.97;;;3.37;;
21166;SDS011;10741;52.272;9.580;2023-03-23T16:31:27;4.40;;;2.80;;
21166;SDS011;10741;52.272;9.580;2023-03-23T16:33:53;5.37;;;3.67;;
21166;SDS011;10741;52.272;9.580;2023-03-23T16:36:19;4.70;;;3.50;;
21166;SDS011;10741;52.272;9.580;2023-03-23T16:38:45;4.53;;;2.97;;
21166;SDS011;10741;52.272;9.580;2023-03-23T16:41:11;4.37;;;2.70;;
21166;SDS011;10741;52.272;9.580;2023-03-23T16:43:36;3.27;;;1.90;;
21166;SDS011;10741;52.272;9.580;2023-03-23T16:46:02;3.50;;;1.97;;